sensor_id;sensor_type;location;lat;lon;timestamp;P1;durP1;ratioP1;P2;durP2;ratioP2
72684;SDS011;61365;52.162;4.500;2022-12-29T00:00:13;2.88;;;1.77;;
72684;SDS011;61365;52.162;4.500;2022-12-29T00:02:40;4.07;;;2.22;;
72684;SDS011;61365;52.162;4.500;2022-12-29T00:05:07;3.40;;;1.75;;
72684;SDS011;61365;52.162;4.500;2022-12-29T00:07:34;4.63;;;1.90;;
72684;SDS011;61365;52.162;4.500;2022-12-29T00:10:00;4.82;;;2.00;;
72684;SDS011;61365;52.162;4.500;2022-12-29T00:12:27;3.88;;;1.52;;
72684;SDS011;61365;52.162;4.500;2022-12-29T00:15:13;3.08;;;1.50;;
72684;SDS011;61365;52.162;4.500;2022-12-29T00:17:58;3.10;;;1.77;;
72684;SDS011;61365;52.162;4.500;2022-12-29T00:20:24;2.75;;;1.20;;
72684;SDS011;61365;52.162;4.500;2022-12-29T00:23:14;2.15;;;1.30;;
72684;SDS011;61365;52.162;4.500;2022-12-29T00:26:02;3.10;;;1.50;;
72684;SDS011;61365;52.162;4.500;2022-12-29T00:28:49;3.63;;;1.40;;
72684;SDS011;61365;52.162;4.500;2022-12-29T00:31:35;5.00;;;1.90;;
72684;SDS011;61365;52.162;4.500;2022-12-29T00:34:20;3.65;;;1.60;;
72684;SDS011;61365;52.162;4.500;2022-12-29T00:37:04;1.40;;;1.10;;
72684;SDS011;61365;52.162;4.500;2022-12-29T00:39:31;4.15;;;1.42;;
72684;SDS011;61365;52.162;4.500;2022-12-29T00:42:16;5.45;;;1.48;;
72684;SDS011;61365;52.162;4.500;2022-12-29T00:45:02;2.92;;;1.45;;
72684;SDS011;61365;52.162;4.500;2022-12-29T00:47:28;3.83;;;1.58;;
72684;SDS011;61365;52.162;4.500;2022-12-29T00:49:55;8.07;;;1.40;;
72684;SDS011;61365;52.162;4.500;2022-12-29T00:52:21;3.58;;;1.45;;
72684;SDS011;61365;52.162;4.500;2022-12-29T00:54:47;4.20;;;1.30;;
72684;SDS011;61365;52.162;4.500;2022-12-29T00:57:14;5.35;;;1.45;;
72684;SDS011;61365;52.162;4.500;2022-12-29T00:59:41;2.58;;;1.55;;
72684;SDS011;61365;52.162;4.500;2022-12-29T01:02:08;4.40;;;1.70;;
72684;SDS011;61365;52.162;4.500;2022-12-29T01:04:36;2.22;;;1.30;;
72684;SDS011;61365;52.162;4.500;2022-12-29T01:07:03;3.83;;;1.30;;
72684;SDS011;61365;52.162;4.500;2022-12-29T01:09:30;5.43;;;1.30;;
72684;SDS011;61365;52.162;4.500;2022-12-29T01:12:16;3.60;;;1.45;;
72684;SDS011;61365;52.162;4.500;2022-12-29T01:15:03;2.28;;;1.20;;
72684;SDS011;61365;52.162;4.500;2022-12-29T01:17:30;3.38;;;1.15;;
72684;SDS011;61365;52.162;4.500;2022-12-29T01:19:56;2.38;;;1.20;;
72684;SDS011;61365;52.162;4.500;2022-12-29T01:22:22;3.05;;;1.40;;
72684;SDS011;61365;52.162;4.500;2022-12-29T01:24:49;4.03;;;1.30;;
72684;SDS011;61365;52.162;4.500;2022-12-29T01:27:15;2.65;;;1.30;;
72684;SDS011;61365;52.162;4.500;2022-12-29T01:29:41;4.45;;;1.45;;
72684;SDS011;61365;52.162;4.500;2022-12-29T01:32:08;1.50;;;1.15;;
72684;SDS011;61365;52.162;4.500;2022-12-29T01:34:34;7.95;;;1.45;;
72684;SDS011;61365;52.162;4.500;2022-12-29T01:37:00;4.88;;;1.08;;
72684;SDS011;61365;52.162;4.500;2022-12-29T01:39:26;2.83;;;1.20;;
72684;SDS011;61365;52.162;4.500;2022-12-29T01:41:53;5.40;;;1.10;;
72684;SDS011;61365;52.162;4.500;2022-12-29T01:47:07;3.17;;;1.10;;
72684;SDS011;61365;52.162;4.500;2022-12-29T01:49:34;5.95;;;1.30;;
72684;SDS011;61365;52.162;4.500;2022-12-29T01:52:03;5.28;;;1.20;;
72684;SDS011;61365;52.162;4.500;2022-12-29T01:54:40;6.95;;;1.38;;
72684;SDS011;61365;52.162;4.500;2022-12-29T01:57:17;7.05;;;1.17;;
72684;SDS011;61365;52.162;4.500;2022-12-29T01:59:53;5.97;;;1.23;;
72684;SDS011;61365;52.162;4.500;2022-12-29T02:02:27;7.45;;;1.10;;
72684;SDS011;61365;52.162;4.500;2022-12-29T02:04:54;8.15;;;1.10;;
72684;SDS011;61365;52.162;4.500;2022-12-29T02:07:25;9.07;;;1.50;;
72684;SDS011;61365;52.162;4.500;2022-12-29T02:09:54;6.78;;;1.30;;
72684;SDS011;61365;52.162;4.500;2022-12-29T02:12:22;6.85;;;1.42;;
72684;SDS011;61365;52.162;4.500;2022-12-29T02:14:50;9.85;;;1.40;;
72684;SDS011;61365;52.162;4.500;2022-12-29T02:24:09;9.75;;;1.55;;
72684;SDS011;61365;52.162;4.500;2022-12-29T02:27:16;4.63;;;1.00;;
72684;SDS011;61365;52.162;4.500;2022-12-29T02:42:51;6.93;;;1.48;;
72684;SDS011;61365;52.162;4.500;2022-12-29T02:45:30;5.53;;;1.45;;
72684;SDS011;61365;52.162;4.500;2022-12-29T02:48:22;9.68;;;1.75;;
72684;SDS011;61365;52.162;4.500;2022-12-29T02:51:07;9.10;;;1.25;;
72684;SDS011;61365;52.162;4.500;2022-12-29T02:53:56;6.30;;;1.27;;
72684;SDS011;61365;52.162;4.500;2022-12-29T02:56:42;8.75;;;1.45;;
72684;SDS011;61365;52.162;4.500;2022-12-29T02:59:09;11.80;;;1.50;;
72684;SDS011;61365;52.162;4.500;2022-12-29T03:07:52;11.13;;;2.05;;
72684;SDS011;61365;52.162;4.500;2022-12-29T03:13:39;15.38;;;2.47;;
72684;SDS011;61365;52.162;4.500;2022-12-29T03:16:52;17.00;;;2.33;;
72684;SDS011;61365;52.162;4.500;2022-12-29T03:19:34;11.43;;;2.03;;
72684;SDS011;61365;52.162;4.500;2022-12-29T03:22:07;12.75;;;2.17;;
72684;SDS011;61365;52.162;4.500;2022-12-29T03:25:05;13.45;;;2.03;;
72684;SDS011;61365;52.162;4.500;2022-12-29T03:27:53;9.63;;;1.75;;
72684;SDS011;61365;52.162;4.500;2022-12-29T03:30:36;13.85;;;1.83;;
72684;SDS011;61365;52.162;4.500;2022-12-29T03:33:07;17.90;;;2.42;;
72684;SDS011;61365;52.162;4.500;2022-12-29T03:35:39;18.40;;;2.58;;
72684;SDS011;61365;52.162;4.500;2022-12-29T03:38:17;15.57;;;2.13;;
72684;SDS011;61365;52.162;4.500;2022-12-29T03:40:59;13.75;;;2.33;;
72684;SDS011;61365;52.162;4.500;2022-12-29T03:43:32;21.70;;;2.33;;
72684;SDS011;61365;52.162;4.500;2022-12-29T03:45:59;10.30;;;1.80;;
72684;SDS011;61365;52.162;4.500;2022-12-29T03:48:25;8.73;;;2.00;;
72684;SDS011;61365;52.162;4.500;2022-12-29T03:50:52;13.57;;;1.90;;
72684;SDS011;61365;52.162;4.500;2022-12-29T03:53:18;11.93;;;2.08;;
72684;SDS011;61365;52.162;4.500;2022-12-29T03:55:45;11.45;;;1.83;;
72684;SDS011;61365;52.162;4.500;2022-12-29T03:58:11;17.92;;;2.55;;
72684;SDS011;61365;52.162;4.500;2022-12-29T04:00:38;9.75;;;1.77;;
72684;SDS011;61365;52.162;4.500;2022-12-29T04:03:04;15.35;;;1.88;;
72684;SDS011;61365;52.162;4.500;2022-12-29T04:05:30;8.70;;;1.67;;
72684;SDS011;61365;52.162;4.500;2022-12-29T04:07:57;9.27;;;1.80;;
72684;SDS011;61365;52.162;4.500;2022-12-29T04:10:23;16.40;;;2.63;;
72684;SDS011;61365;52.162;4.500;2022-12-29T04:12:49;9.48;;;1.85;;
72684;SDS011;61365;52.162;4.500;2022-12-29T04:15:16;13.68;;;2.25;;
72684;SDS011;61365;52.162;4.500;2022-12-29T04:17:42;14.70;;;2.05;;
72684;SDS011;61365;52.162;4.500;2022-12-29T04:20:09;10.70;;;2.17;;
72684;SDS011;61365;52.162;4.500;2022-12-29T04:23:03;12.32;;;2.35;;
72684;SDS011;61365;52.162;4.500;2022-12-29T04:25:31;15.23;;;2.42;;
72684;SDS011;61365;52.162;4.500;2022-12-29T04:27:58;21.85;;;4.25;;
72684;SDS011;61365;52.162;4.500;2022-12-29T04:30:25;19.00;;;3.10;;
72684;SDS011;61365;52.162;4.500;2022-12-29T04:32:51;17.38;;;2.58;;
72684;SDS011;61365;52.162;4.500;2022-12-29T04:35:17;20.10;;;2.80;;
72684;SDS011;61365;52.162;4.500;2022-12-29T04:37:44;19.25;;;3.55;;
72684;SDS011;61365;52.162;4.500;2022-12-29T04:40:10;19.45;;;3.20;;
72684;SDS011;61365;52.162;4.500;2022-12-29T04:42:37;16.42;;;3.03;;
72684;SDS011;61365;52.162;4.500;2022-12-29T04:45:04;20.83;;;2.75;;
72684;SDS011;61365;52.162;4.500;2022-12-29T04:47:31;14.05;;;2.85;;
72684;SDS011;61365;52.162;4.500;2022-12-29T04:49:57;24.00;;;2.88;;
72684;SDS011;61365;52.162;4.500;2022-12-29T04:52:24;17.00;;;2.28;;
72684;SDS011;61365;52.162;4.500;2022-12-29T04:54:50;19.27;;;4.93;;
72684;SDS011;61365;52.162;4.500;2022-12-29T04:57:16;18.08;;;2.70;;
72684;SDS011;61365;52.162;4.500;2022-12-29T04:59:43;17.13;;;2.88;;
72684;SDS011;61365;52.162;4.500;2022-12-29T05:02:09;15.82;;;2.92;;
72684;SDS011;61365;52.162;4.500;2022-12-29T05:04:35;14.98;;;1.98;;
72684;SDS011;61365;52.162;4.500;2022-12-29T05:07:02;15.60;;;2.53;;
72684;SDS011;61365;52.162;4.500;2022-12-29T05:09:28;18.00;;;2.35;;
72684;SDS011;61365;52.162;4.500;2022-12-29T05:11:55;18.35;;;2.30;;
72684;SDS011;61365;52.162;4.500;2022-12-29T05:14:21;17.88;;;2.55;;
72684;SDS011;61365;52.162;4.500;2022-12-29T05:16:48;15.55;;;2.78;;
72684;SDS011;61365;52.162;4.500;2022-12-29T05:19:14;17.48;;;1.95;;
72684;SDS011;61365;52.162;4.500;2022-12-29T05:21:42;17.45;;;2.47;;
72684;SDS011;61365;52.162;4.500;2022-12-29T05:24:09;12.75;;;2.05;;
72684;SDS011;61365;52.162;4.500;2022-12-29T05:26:35;14.80;;;2.45;;
72684;SDS011;61365;52.162;4.500;2022-12-29T05:29:01;14.20;;;3.03;;
72684;SDS011;61365;52.162;4.500;2022-12-29T05:31:29;9.77;;;2.03;;
72684;SDS011;61365;52.162;4.500;2022-12-29T05:33:55;17.40;;;2.13;;
72684;SDS011;61365;52.162;4.500;2022-12-29T05:36:22;12.88;;;2.25;;
72684;SDS011;61365;52.162;4.500;2022-12-29T05:38:48;21.30;;;2.97;;
72684;SDS011;61365;52.162;4.500;2022-12-29T05:41:15;19.63;;;3.17;;
72684;SDS011;61365;52.162;4.500;2022-12-29T05:43:41;16.13;;;2.55;;
72684;SDS011;61365;52.162;4.500;2022-12-29T05:46:08;20.42;;;3.08;;
72684;SDS011;61365;52.162;4.500;2022-12-29T05:48:34;13.18;;;2.70;;
72684;SDS011;61365;52.162;4.500;2022-12-29T05:51:00;18.02;;;2.92;;
72684;SDS011;61365;52.162;4.500;2022-12-29T05:53:27;21.73;;;3.55;;
72684;SDS011;61365;52.162;4.500;2022-12-29T05:55:53;23.38;;;3.40;;
72684;SDS011;61365;52.162;4.500;2022-12-29T05:58:19;18.52;;;2.97;;
72684;SDS011;61365;52.162;4.500;2022-12-29T06:00:46;16.85;;;2.88;;
72684;SDS011;61365;52.162;4.500;2022-12-29T06:03:12;18.38;;;2.75;;
72684;SDS011;61365;52.162;4.500;2022-12-29T06:05:39;15.70;;;2.97;;
72684;SDS011;61365;52.162;4.500;2022-12-29T06:08:05;15.48;;;2.95;;
72684;SDS011;61365;52.162;4.500;2022-12-29T06:10:31;17.90;;;3.28;;
72684;SDS011;61365;52.162;4.500;2022-12-29T06:12:58;18.45;;;2.83;;
72684;SDS011;61365;52.162;4.500;2022-12-29T06:15:24;15.32;;;2.63;;
72684;SDS011;61365;52.162;4.500;2022-12-29T06:17:50;16.50;;;3.03;;
72684;SDS011;61365;52.162;4.500;2022-12-29T06:20:17;13.70;;;2.20;;
72684;SDS011;61365;52.162;4.500;2022-12-29T06:22:43;12.88;;;2.47;;
72684;SDS011;61365;52.162;4.500;2022-12-29T06:25:09;16.40;;;2.70;;
72684;SDS011;61365;52.162;4.500;2022-12-29T06:27:36;23.38;;;3.03;;
72684;SDS011;61365;52.162;4.500;2022-12-29T06:30:02;15.63;;;3.10;;
72684;SDS011;61365;52.162;4.500;2022-12-29T06:32:29;17.02;;;3.13;;
72684;SDS011;61365;52.162;4.500;2022-12-29T06:34:56;16.45;;;3.10;;
72684;SDS011;61365;52.162;4.500;2022-12-29T06:37:22;20.85;;;3.20;;
72684;SDS011;61365;52.162;4.500;2022-12-29T06:39:48;24.98;;;3.70;;
72684;SDS011;61365;52.162;4.500;2022-12-29T06:42:15;21.00;;;3.40;;
72684;SDS011;61365;52.162;4.500;2022-12-29T06:44:41;28.50;;;4.00;;
72684;SDS011;61365;52.162;4.500;2022-12-29T06:47:08;20.17;;;3.13;;
72684;SDS011;61365;52.162;4.500;2022-12-29T06:49:35;24.48;;;3.13;;
72684;SDS011;61365;52.162;4.500;2022-12-29T06:52:01;18.02;;;3.20;;
72684;SDS011;61365;52.162;4.500;2022-12-29T06:54:32;28.23;;;3.65;;
72684;SDS011;61365;52.162;4.500;2022-12-29T06:56:59;20.55;;;3.30;;
72684;SDS011;61365;52.162;4.500;2022-12-29T06:59:25;33.00;;;4.82;;
72684;SDS011;61365;52.162;4.500;2022-12-29T07:01:51;28.92;;;3.83;;
72684;SDS011;61365;52.162;4.500;2022-12-29T07:04:18;24.90;;;4.20;;
72684;SDS011;61365;52.162;4.500;2022-12-29T07:06:44;21.60;;;3.92;;
72684;SDS011;61365;52.162;4.500;2022-12-29T07:09:11;27.60;;;4.53;;
72684;SDS011;61365;52.162;4.500;2022-12-29T07:11:37;24.08;;;3.60;;
72684;SDS011;61365;52.162;4.500;2022-12-29T07:14:03;26.50;;;3.72;;
72684;SDS011;61365;52.162;4.500;2022-12-29T07:16:30;26.70;;;3.60;;
72684;SDS011;61365;52.162;4.500;2022-12-29T07:18:58;23.45;;;3.60;;
72684;SDS011;61365;52.162;4.500;2022-12-29T07:21:25;25.77;;;3.25;;
72684;SDS011;61365;52.162;4.500;2022-12-29T07:23:51;18.95;;;2.92;;
72684;SDS011;61365;52.162;4.500;2022-12-29T07:26:20;19.70;;;3.63;;
72684;SDS011;61365;52.162;4.500;2022-12-29T07:28:46;21.48;;;3.03;;
72684;SDS011;61365;52.162;4.500;2022-12-29T07:31:20;28.05;;;2.85;;
72684;SDS011;61365;52.162;4.500;2022-12-29T07:33:49;24.25;;;3.20;;
72684;SDS011;61365;52.162;4.500;2022-12-29T07:36:16;23.15;;;3.33;;
72684;SDS011;61365;52.162;4.500;2022-12-29T07:38:43;24.17;;;2.75;;
72684;SDS011;61365;52.162;4.500;2022-12-29T07:41:09;20.48;;;2.85;;
72684;SDS011;61365;52.162;4.500;2022-12-29T07:43:36;27.83;;;3.72;;
72684;SDS011;61365;52.162;4.500;2022-12-29T07:46:02;21.17;;;3.33;;
72684;SDS011;61365;52.162;4.500;2022-12-29T07:48:29;19.75;;;3.20;;
72684;SDS011;61365;52.162;4.500;2022-12-29T07:50:55;20.33;;;2.72;;
72684;SDS011;61365;52.162;4.500;2022-12-29T07:53:22;19.88;;;3.30;;
72684;SDS011;61365;52.162;4.500;2022-12-29T07:55:48;18.23;;;2.78;;
72684;SDS011;61365;52.162;4.500;2022-12-29T07:58:15;23.83;;;2.95;;
72684;SDS011;61365;52.162;4.500;2022-12-29T08:00:41;24.83;;;3.25;;
72684;SDS011;61365;52.162;4.500;2022-12-29T08:03:07;18.00;;;3.10;;
72684;SDS011;61365;52.162;4.500;2022-12-29T08:05:34;19.45;;;2.67;;
72684;SDS011;61365;52.162;4.500;2022-12-29T08:08:00;21.98;;;3.30;;
72684;SDS011;61365;52.162;4.500;2022-12-29T08:10:27;22.85;;;3.35;;
72684;SDS011;61365;52.162;4.500;2022-12-29T08:12:53;21.55;;;2.92;;
72684;SDS011;61365;52.162;4.500;2022-12-29T08:15:19;19.83;;;3.00;;
72684;SDS011;61365;52.162;4.500;2022-12-29T08:17:46;15.50;;;2.92;;
72684;SDS011;61365;52.162;4.500;2022-12-29T08:20:12;32.17;;;4.20;;
72684;SDS011;61365;52.162;4.500;2022-12-29T08:22:39;18.52;;;3.10;;
72684;SDS011;61365;52.162;4.500;2022-12-29T08:25:06;23.05;;;3.65;;
72684;SDS011;61365;52.162;4.500;2022-12-29T08:27:33;25.92;;;3.95;;
72684;SDS011;61365;52.162;4.500;2022-12-29T08:29:59;23.38;;;3.40;;
72684;SDS011;61365;52.162;4.500;2022-12-29T08:32:26;21.02;;;3.22;;
72684;SDS011;61365;52.162;4.500;2022-12-29T08:34:54;19.58;;;2.92;;
72684;SDS011;61365;52.162;4.500;2022-12-29T08:37:20;20.90;;;3.15;;
72684;SDS011;61365;52.162;4.500;2022-12-29T08:39:47;23.65;;;2.88;;
72684;SDS011;61365;52.162;4.500;2022-12-29T08:42:14;22.50;;;4.05;;
72684;SDS011;61365;52.162;4.500;2022-12-29T08:44:41;22.02;;;3.33;;
72684;SDS011;61365;52.162;4.500;2022-12-29T08:47:08;27.52;;;3.00;;
72684;SDS011;61365;52.162;4.500;2022-12-29T08:49:36;21.33;;;3.15;;
72684;SDS011;61365;52.162;4.500;2022-12-29T08:52:03;15.23;;;3.17;;
72684;SDS011;61365;52.162;4.500;2022-12-29T08:54:30;24.58;;;3.17;;
72684;SDS011;61365;52.162;4.500;2022-12-29T08:56:56;22.52;;;3.35;;
72684;SDS011;61365;52.162;4.500;2022-12-29T08:59:22;17.83;;;3.58;;
72684;SDS011;61365;52.162;4.500;2022-12-29T09:01:49;20.90;;;3.00;;
72684;SDS011;61365;52.162;4.500;2022-12-29T09:04:15;24.05;;;3.80;;
72684;SDS011;61365;52.162;4.500;2022-12-29T09:06:42;19.75;;;3.08;;
72684;SDS011;61365;52.162;4.500;2022-12-29T09:09:10;18.73;;;3.58;;
72684;SDS011;61365;52.162;4.500;2022-12-29T09:11:36;19.27;;;3.33;;
72684;SDS011;61365;52.162;4.500;2022-12-29T09:14:03;21.45;;;3.10;;
72684;SDS011;61365;52.162;4.500;2022-12-29T09:16:30;20.98;;;3.53;;
72684;SDS011;61365;52.162;4.500;2022-12-29T09:18:57;17.60;;;3.25;;
72684;SDS011;61365;52.162;4.500;2022-12-29T09:21:23;17.40;;;3.33;;
72684;SDS011;61365;52.162;4.500;2022-12-29T09:23:50;27.38;;;3.60;;
72684;SDS011;61365;52.162;4.500;2022-12-29T09:26:16;27.85;;;4.47;;
72684;SDS011;61365;52.162;4.500;2022-12-29T09:28:42;25.73;;;3.95;;
72684;SDS011;61365;52.162;4.500;2022-12-29T09:31:10;28.67;;;4.43;;
72684;SDS011;61365;52.162;4.500;2022-12-29T09:33:36;20.38;;;3.03;;
72684;SDS011;61365;52.162;4.500;2022-12-29T09:36:03;25.52;;;4.18;;
72684;SDS011;61365;52.162;4.500;2022-12-29T09:38:30;20.90;;;4.28;;
72684;SDS011;61365;52.162;4.500;2022-12-29T09:41:01;27.90;;;4.18;;
72684;SDS011;61365;52.162;4.500;2022-12-29T09:47:03;19.58;;;3.97;;
72684;SDS011;61365;52.162;4.500;2022-12-29T09:52:20;29.75;;;4.60;;
72684;SDS011;61365;52.162;4.500;2022-12-29T09:54:58;24.27;;;5.13;;
72684;SDS011;61365;52.162;4.500;2022-12-29T09:57:38;34.58;;;5.28;;
72684;SDS011;61365;52.162;4.500;2022-12-29T10:00:16;26.83;;;4.40;;
72684;SDS011;61365;52.162;4.500;2022-12-29T10:02:50;31.48;;;5.03;;
72684;SDS011;61365;52.162;4.500;2022-12-29T10:08:07;34.50;;;4.68;;
72684;SDS011;61365;52.162;4.500;2022-12-29T10:10:38;30.45;;;4.63;;
72684;SDS011;61365;52.162;4.500;2022-12-29T10:13:32;36.50;;;5.07;;
72684;SDS011;61365;52.162;4.500;2022-12-29T10:16:15;36.97;;;5.47;;
72684;SDS011;61365;52.162;4.500;2022-12-29T10:25:26;31.77;;;4.47;;
72684;SDS011;61365;52.162;4.500;2022-12-29T10:28:01;33.28;;;4.93;;
72684;SDS011;61365;52.162;4.500;2022-12-29T10:30:41;33.78;;;5.32;;
72684;SDS011;61365;52.162;4.500;2022-12-29T10:33:11;30.50;;;5.45;;
72684;SDS011;61365;52.162;4.500;2022-12-29T10:35:44;27.90;;;4.30;;
72684;SDS011;61365;52.162;4.500;2022-12-29T10:38:27;34.05;;;5.25;;
72684;SDS011;61365;52.162;4.500;2022-12-29T10:41:17;26.50;;;4.38;;
72684;SDS011;61365;52.162;4.500;2022-12-29T10:43:53;27.02;;;4.88;;
72684;SDS011;61365;52.162;4.500;2022-12-29T10:46:25;22.80;;;3.28;;
72684;SDS011;61365;52.162;4.500;2022-12-29T10:48:59;25.35;;;4.00;;
72684;SDS011;61365;52.162;4.500;2022-12-29T10:51:32;23.98;;;3.90;;
72684;SDS011;61365;52.162;4.500;2022-12-29T10:54:16;26.02;;;3.90;;
72684;SDS011;61365;52.162;4.500;2022-12-29T10:56:54;27.83;;;3.47;;
72684;SDS011;61365;52.162;4.500;2022-12-29T10:59:30;22.83;;;4.00;;
72684;SDS011;61365;52.162;4.500;2022-12-29T11:07:21;19.75;;;3.50;;
72684;SDS011;61365;52.162;4.500;2022-12-29T11:09:49;20.92;;;3.35;;
72684;SDS011;61365;52.162;4.500;2022-12-29T11:12:25;17.17;;;3.25;;
72684;SDS011;61365;52.162;4.500;2022-12-29T11:17:43;19.67;;;3.20;;
72684;SDS011;61365;52.162;4.500;2022-12-29T11:20:35;11.88;;;2.20;;
72684;SDS011;61365;52.162;4.500;2022-12-29T11:23:05;20.23;;;3.40;;
72684;SDS011;61365;52.162;4.500;2022-12-29T11:28:45;21.58;;;2.83;;
72684;SDS011;61365;52.162;4.500;2022-12-29T11:31:43;15.50;;;3.42;;
72684;SDS011;61365;52.162;4.500;2022-12-29T11:34:22;14.95;;;2.40;;
72684;SDS011;61365;52.162;4.500;2022-12-29T11:36:58;11.32;;;2.83;;
72684;SDS011;61365;52.162;4.500;2022-12-29T11:39:30;10.68;;;2.22;;
72684;SDS011;61365;52.162;4.500;2022-12-29T11:42:17;13.60;;;2.20;;
72684;SDS011;61365;52.162;4.500;2022-12-29T11:45:02;14.10;;;2.60;;
72684;SDS011;61365;52.162;4.500;2022-12-29T11:47:41;17.92;;;2.70;;
72684;SDS011;61365;52.162;4.500;2022-12-29T11:50:25;13.02;;;2.17;;
72684;SDS011;61365;52.162;4.500;2022-12-29T11:52:59;16.30;;;2.88;;
72684;SDS011;61365;52.162;4.500;2022-12-29T11:55:32;16.40;;;2.60;;
72684;SDS011;61365;52.162;4.500;2022-12-29T11:58:00;18.95;;;2.85;;
72684;SDS011;61365;52.162;4.500;2022-12-29T12:00:34;13.15;;;2.60;;
72684;SDS011;61365;52.162;4.500;2022-12-29T12:05:44;12.90;;;2.17;;
72684;SDS011;61365;52.162;4.500;2022-12-29T12:11:14;15.85;;;2.70;;
72684;SDS011;61365;52.162;4.500;2022-12-29T12:16:46;10.35;;;2.20;;
72684;SDS011;61365;52.162;4.500;2022-12-29T12:25:29;14.13;;;2.28;;
72684;SDS011;61365;52.162;4.500;2022-12-29T12:28:09;12.77;;;2.75;;
72684;SDS011;61365;52.162;4.500;2022-12-29T12:30:48;13.75;;;2.72;;
72684;SDS011;61365;52.162;4.500;2022-12-29T12:33:37;12.75;;;2.00;;
72684;SDS011;61365;52.162;4.500;2022-12-29T12:39:02;16.83;;;2.50;;
72684;SDS011;61365;52.162;4.500;2022-12-29T12:42:00;17.73;;;2.85;;
72684;SDS011;61365;52.162;4.500;2022-12-29T12:45:27;25.13;;;3.10;;
72684;SDS011;61365;52.162;4.500;2022-12-29T12:59:56;14.98;;;2.58;;
72684;SDS011;61365;52.162;4.500;2022-12-29T13:05:38;19.00;;;2.55;;
72684;SDS011;61365;52.162;4.500;2022-12-29T13:11:28;17.85;;;3.08;;
72684;SDS011;61365;52.162;4.500;2022-12-29T13:14:23;16.45;;;3.05;;
72684;SDS011;61365;52.162;4.500;2022-12-29T13:17:34;11.83;;;2.50;;
72684;SDS011;61365;52.162;4.500;2022-12-29T13:20:53;9.88;;;2.25;;
72684;SDS011;61365;52.162;4.500;2022-12-29T13:23:44;19.08;;;2.97;;
72684;SDS011;61365;52.162;4.500;2022-12-29T13:27:00;18.52;;;2.90;;
72684;SDS011;61365;52.162;4.500;2022-12-29T13:35:38;20.38;;;2.75;;
72684;SDS011;61365;52.162;4.500;2022-12-29T13:38:47;21.25;;;3.15;;
72684;SDS011;61365;52.162;4.500;2022-12-29T13:44:19;19.35;;;3.03;;
72684;SDS011;61365;52.162;4.500;2022-12-29T13:46:54;17.00;;;2.63;;
72684;SDS011;61365;52.162;4.500;2022-12-29T13:57:50;19.27;;;2.92;;
72684;SDS011;61365;52.162;4.500;2022-12-29T14:01:14;12.90;;;2.15;;
72684;SDS011;61365;52.162;4.500;2022-12-29T14:06:24;14.68;;;3.08;;
72684;SDS011;61365;52.162;4.500;2022-12-29T14:08:58;17.15;;;3.42;;
72684;SDS011;61365;52.162;4.500;2022-12-29T14:11:34;17.02;;;2.67;;
72684;SDS011;61365;52.162;4.500;2022-12-29T14:14:40;17.25;;;2.70;;
72684;SDS011;61365;52.162;4.500;2022-12-29T14:17:10;9.57;;;2.67;;
72684;SDS011;61365;52.162;4.500;2022-12-29T14:19:39;15.98;;;3.15;;
72684;SDS011;61365;52.162;4.500;2022-12-29T14:22:09;14.45;;;2.92;;
72684;SDS011;61365;52.162;4.500;2022-12-29T14:24:39;14.75;;;2.55;;
72684;SDS011;61365;52.162;4.500;2022-12-29T14:35:36;20.92;;;4.03;;
72684;SDS011;61365;52.162;4.500;2022-12-29T14:38:16;20.85;;;4.90;;
72684;SDS011;61365;52.162;4.500;2022-12-29T14:40:46;16.33;;;3.67;;
72684;SDS011;61365;52.162;4.500;2022-12-29T14:43:24;18.55;;;3.05;;
72684;SDS011;61365;52.162;4.500;2022-12-29T14:45:54;15.73;;;3.70;;
72684;SDS011;61365;52.162;4.500;2022-12-29T14:51:19;23.25;;;2.92;;
72684;SDS011;61365;52.162;4.500;2022-12-29T14:53:56;24.67;;;3.80;;
72684;SDS011;61365;52.162;4.500;2022-12-29T14:56:27;21.80;;;2.92;;
72684;SDS011;61365;52.162;4.500;2022-12-29T14:58:59;22.30;;;3.95;;
72684;SDS011;61365;52.162;4.500;2022-12-29T15:07:02;18.55;;;3.20;;
72684;SDS011;61365;52.162;4.500;2022-12-29T15:12:46;24.77;;;3.45;;
72684;SDS011;61365;52.162;4.500;2022-12-29T15:17:52;18.23;;;3.40;;
72684;SDS011;61365;52.162;4.500;2022-12-29T15:20:24;17.55;;;3.35;;
72684;SDS011;61365;52.162;4.500;2022-12-29T15:23:04;23.80;;;3.50;;
72684;SDS011;61365;52.162;4.500;2022-12-29T15:28:24;15.20;;;4.50;;
72684;SDS011;61365;52.162;4.500;2022-12-29T15:33:23;23.70;;;4.28;;
72684;SDS011;61365;52.162;4.500;2022-12-29T15:35:54;22.52;;;3.05;;
72684;SDS011;61365;52.162;4.500;2022-12-29T15:38:28;21.90;;;3.20;;
72684;SDS011;61365;52.162;4.500;2022-12-29T15:40:58;19.23;;;3.80;;
72684;SDS011;61365;52.162;4.500;2022-12-29T15:43:37;19.10;;;3.25;;
72684;SDS011;61365;52.162;4.500;2022-12-29T15:46:13;19.10;;;3.42;;
72684;SDS011;61365;52.162;4.500;2022-12-29T15:48:40;23.02;;;3.28;;
72684;SDS011;61365;52.162;4.500;2022-12-29T15:51:17;22.58;;;3.22;;
72684;SDS011;61365;52.162;4.500;2022-12-29T15:53:56;19.65;;;3.25;;
72684;SDS011;61365;52.162;4.500;2022-12-29T15:56:23;22.80;;;4.75;;
72684;SDS011;61365;52.162;4.500;2022-12-29T15:58:55;24.75;;;4.13;;
72684;SDS011;61365;52.162;4.500;2022-12-29T16:03:58;27.00;;;3.25;;
72684;SDS011;61365;52.162;4.500;2022-12-29T16:09:04;20.02;;;3.88;;
72684;SDS011;61365;52.162;4.500;2022-12-29T16:11:37;21.60;;;3.42;;
72684;SDS011;61365;52.162;4.500;2022-12-29T16:14:10;18.20;;;3.20;;
72684;SDS011;61365;52.162;4.500;2022-12-29T16:16:44;25.58;;;3.22;;
72684;SDS011;61365;52.162;4.500;2022-12-29T16:19:24;17.98;;;3.28;;
72684;SDS011;61365;52.162;4.500;2022-12-29T16:21:58;21.65;;;3.53;;
72684;SDS011;61365;52.162;4.500;2022-12-29T16:24:29;18.30;;;3.22;;
72684;SDS011;61365;52.162;4.500;2022-12-29T16:27:01;24.30;;;3.13;;
72684;SDS011;61365;52.162;4.500;2022-12-29T16:29:40;16.90;;;2.75;;
72684;SDS011;61365;52.162;4.500;2022-12-29T16:35:22;21.88;;;3.17;;
72684;SDS011;61365;52.162;4.500;2022-12-29T16:38:11;23.33;;;2.92;;
72684;SDS011;61365;52.162;4.500;2022-12-29T16:40:51;20.08;;;4.03;;
72684;SDS011;61365;52.162;4.500;2022-12-29T16:43:29;25.90;;;5.53;;
72684;SDS011;61365;52.162;4.500;2022-12-29T16:51:04;21.63;;;3.42;;
72684;SDS011;61365;52.162;4.500;2022-12-29T16:53:40;22.08;;;3.47;;
72684;SDS011;61365;52.162;4.500;2022-12-29T16:56:24;22.45;;;5.28;;
72684;SDS011;61365;52.162;4.500;2022-12-29T17:02:07;19.55;;;3.42;;
72684;SDS011;61365;52.162;4.500;2022-12-29T17:04:41;14.95;;;2.70;;
72684;SDS011;61365;52.162;4.500;2022-12-29T17:07:20;23.95;;;3.40;;
72684;SDS011;61365;52.162;4.500;2022-12-29T17:09:53;20.75;;;3.42;;
72684;SDS011;61365;52.162;4.500;2022-12-29T17:12:24;22.77;;;4.20;;
72684;SDS011;61365;52.162;4.500;2022-12-29T17:14:55;26.35;;;4.18;;
72684;SDS011;61365;52.162;4.500;2022-12-29T17:20:00;26.67;;;4.57;;
72684;SDS011;61365;52.162;4.500;2022-12-29T17:23:05;18.73;;;4.07;;
72684;SDS011;61365;52.162;4.500;2022-12-29T17:25:41;17.90;;;4.38;;
72684;SDS011;61365;52.162;4.500;2022-12-29T17:28:13;23.95;;;4.20;;
72684;SDS011;61365;52.162;4.500;2022-12-29T17:31:01;15.68;;;3.15;;
72684;SDS011;61365;52.162;4.500;2022-12-29T17:33:35;18.10;;;4.03;;
72684;SDS011;61365;52.162;4.500;2022-12-29T17:36:05;19.05;;;3.75;;
72684;SDS011;61365;52.162;4.500;2022-12-29T17:38:33;21.20;;;3.78;;
72684;SDS011;61365;52.162;4.500;2022-12-29T17:41:02;19.70;;;3.60;;
72684;SDS011;61365;52.162;4.500;2022-12-29T17:43:28;21.98;;;3.72;;
72684;SDS011;61365;52.162;4.500;2022-12-29T17:45:55;20.85;;;3.72;;
72684;SDS011;61365;52.162;4.500;2022-12-29T17:48:24;23.52;;;5.13;;
72684;SDS011;61365;52.162;4.500;2022-12-29T17:50:50;23.83;;;6.38;;